Time;durP1;ratioP1;P1;durP2;ratioP2;P2;SDS_P1;SDS_P2;PMS_P1;PMS_P2;Temp;Humidity;BMP_temperature;BMP_pressure;BME280_temperature;BME280_humidity;BME280_pressure;Samples;Min_cycle;Max_cycle;Signal;HPM_P1;HPM_P2
2023/10/27 00:02:16;;;;;;;15.30;7.80;;;;;;;;;;103802;1292;544724;-74
2023/10/27 00:05:53;;;;;;;15.30;8.30;;;;;;;;;;103781;1289;545404;-75
2023/10/27 00:09:33;;;;;;;14.30;7.10;;;;;;;;;;103814;1301;545345;-74
2023/10/27 00:13:08;;;;;;;16.80;7.10;;;;;;;;;;103828;1290;545760;-75
2023/10/27 00:16:46;;;;;;;12.20;6.30;;;;;;;;;;103668;1292;546239;-74
2023/10/27 00:20:27;;;;;;;10.50;5.50;;;;;;;;;;103747;1289;545569;-74
2023/10/27 00:24:01;;;;;;;11.80;5.60;;;;;;;;;;103839;1292;544742;-75
2023/10/27 00:27:39;;;;;;;11.40;5.80;;;;;;;;;;103986;1293;545307;-74
2023/10/27 00:31:16;;;;;;;11.80;5.50;;;;;;;;;;103747;1291;544810;-75
2023/10/27 00:34:53;;;;;;;9.90;5.40;;;;;;;;;;103957;1288;544921;-74
2023/10/27 00:38:30;;;;;;;11.50;6.10;;;;;;;;;;103774;1289;545401;-74
2023/10/27 00:42:08;;;;;;;13.40;7.00;;;;;;;;;;103874;1292;544872;-74
2023/10/27 00:45:47;;;;;;;12.00;7.10;;;;;;;;;;103797;1290;544875;-74
2023/10/27 00:49:23;;;;;;;12.50;6.60;;;;;;;;;;103860;1292;544838;-74
2023/10/27 00:53:23;;;;;;;12.00;6.30;;;;;;;;;;104381;1286;547895;-74
2023/10/27 00:56:39;;;;;;;10.80;5.40;;;;;;;;;;103767;1295;544941;-74
2023/10/27 01:00:17;;;;;;;12.30;6.50;;;;;;;;;;103663;1289;547777;-74
2023/10/27 01:03:55;;;;;;;10.90;5.30;;;;;;;;;;103764;1289;545191;-74
2023/10/27 01:07:26;;;;;;;11.80;5.50;;;;;;;;;;104020;1288;545056;-74
2023/10/27 01:11:10;;;;;;;10.70;5.50;;;;;;;;;;103731;1290;545627;-74
2023/10/27 01:14:46;;;;;;;11.80;5.60;;;;;;;;;;104079;1298;544753;-74
2023/10/27 01:18:24;;;;;;;11.60;5.60;;;;;;;;;;103792;1292;545276;-74
2023/10/27 01:21:58;;;;;;;8.90;4.80;;;;;;;;;;103888;1289;545056;-74
2023/10/27 01:25:39;;;;;;;9.90;5.10;;;;;;;;;;104043;1289;545044;-75
2023/10/27 01:29:27;;;;;;;10.90;5.30;;;;;;;;;;103658;1290;547984;-75
2023/10/27 01:32:54;;;;;;;14.00;6.70;;;;;;;;;;103759;1292;544811;-74
2023/10/27 01:36:31;;;;;;;15.40;8.30;;;;;;;;;;103760;1289;544982;-74
2023/10/27 01:40:10;;;;;;;13.90;7.00;;;;;;;;;;103768;1291;545119;-74
2023/10/27 01:43:52;;;;;;;15.70;8.50;;;;;;;;;;103649;1289;547775;-74
2023/10/27 01:47:24;;;;;;;16.80;8.30;;;;;;;;;;103844;1288;544816;-74
2023/10/27 01:51:01;;;;;;;14.30;8.50;;;;;;;;;;103937;1288;544760;-74
2023/10/27 01:54:39;;;;;;;16.10;8.50;;;;;;;;;;103827;1290;545459;-74
2023/10/27 01:58:16;;;;;;;13.20;7.90;;;;;;;;;;103812;1291;545123;-74
2023/10/27 02:01:54;;;;;;;14.10;7.90;;;;;;;;;;103711;1290;545530;-74
2023/10/27 02:05:31;;;;;;;15.60;7.00;;;;;;;;;;103777;1301;544900;-74
2023/10/27 02:09:09;;;;;;;13.80;6.80;;;;;;;;;;103762;1292;545195;-74
2023/10/27 02:12:46;;;;;;;14.80;7.60;;;;;;;;;;103752;1292;546639;-74
2023/10/27 02:16:24;;;;;;;14.50;8.60;;;;;;;;;;103808;1289;545559;-74
2023/10/27 02:19:57;;;;;;;16.60;9.60;;;;;;;;;;103941;1289;545005;-74
2023/10/27 02:23:40;;;;;;;15.50;8.50;;;;;;;;;;103779;1291;546290;-74
2023/10/27 02:27:17;;;;;;;15.10;8.30;;;;;;;;;;103762;1291;545793;-74
2023/10/27 02:30:54;;;;;;;15.80;8.30;;;;;;;;;;103783;1289;545566;-74
2023/10/27 02:34:32;;;;;;;13.60;7.70;;;;;;;;;;103745;1289;544984;-75
2023/10/27 02:38:10;;;;;;;13.30;7.10;;;;;;;;;;103790;1292;544769;-74
2023/10/27 02:41:47;;;;;;;10.30;6.00;;;;;;;;;;103630;1295;544811;-74
2023/10/27 02:45:25;;;;;;;13.40;7.00;;;;;;;;;;104059;1290;545427;-74
2023/10/27 02:49:05;;;;;;;15.20;7.90;;;;;;;;;;103711;1291;544718;-74
2023/10/27 02:52:40;;;;;;;12.40;7.00;;;;;;;;;;103689;1289;544951;-77
2023/10/27 02:56:17;;;;;;;11.00;7.00;;;;;;;;;;103643;1291;545015;-74
2023/10/27 02:59:56;;;;;;;11.70;6.50;;;;;;;;;;103698;1289;545943;-76
2023/10/27 03:03:30;;;;;;;12.20;6.90;;;;;;;;;;104085;1291;545755;-73
2023/10/27 03:07:15;;;;;;;13.90;7.50;;;;;;;;;;103725;1291;544767;-74
2023/10/27 03:10:51;;;;;;;14.60;6.90;;;;;;;;;;103665;1291;544963;-74
2023/10/27 03:14:29;;;;;;;12.60;6.60;;;;;;;;;;103742;1292;544948;-74
2023/10/27 03:18:06;;;;;;;15.10;7.70;;;;;;;;;;103713;1291;544912;-79
2023/10/27 03:21:43;;;;;;;17.70;10.00;;;;;;;;;;103725;1290;545079;-74
2023/10/27 03:25:21;;;;;;;17.80;9.00;;;;;;;;;;103914;1289;544966;-74
2023/10/27 03:28:59;;;;;;;16.10;9.50;;;;;;;;;;103761;1291;545004;-76
2023/10/27 03:32:35;;;;;;;15.70;8.50;;;;;;;;;;103725;1292;545009;-74
2023/10/27 03:36:13;;;;;;;15.60;8.50;;;;;;;;;;103707;1292;545709;-74
2023/10/27 03:39:52;;;;;;;15.60;8.20;;;;;;;;;;103835;1288;544727;-74
2023/10/27 03:43:29;;;;;;;16.70;9.10;;;;;;;;;;103836;1294;544730;-75
2023/10/27 03:47:06;;;;;;;21.30;9.40;;;;;;;;;;103836;1291;545134;-74
2023/10/27 03:50:43;;;;;;;18.20;9.10;;;;;;;;;;103726;1289;544872;-74
2023/10/27 03:54:20;;;;;;;17.70;9.30;;;;;;;;;;103672;1292;544950;-74
2023/10/27 03:58:17;;;;;;;18.30;9.40;;;;;;;;;;103771;1291;545368;-74
2023/10/27 04:01:36;;;;;;;16.20;9.10;;;;;;;;;;103744;1289;545014;-74
2023/10/27 04:05:13;;;;;;;16.70;8.90;;;;;;;;;;103751;1301;544827;-74
2023/10/27 04:08:47;;;;;;;15.70;9.70;;;;;;;;;;103972;1289;544730;-74
2023/10/27 04:12:30;;;;;;;19.10;10.50;;;;;;;;;;103719;1291;545323;-75
2023/10/27 04:16:07;;;;;;;17.60;9.30;;;;;;;;;;103742;1289;545443;-74
2023/10/27 04:19:45;;;;;;;16.50;9.80;;;;;;;;;;103757;1289;546010;-74
2023/10/27 04:23:22;;;;;;;16.10;9.60;;;;;;;;;;103718;1291;545091;-74
2023/10/27 04:27:00;;;;;;;15.70;9.20;;;;;;;;;;103720;1291;545704;-75
2023/10/27 04:30:37;;;;;;;17.20;9.40;;;;;;;;;;104111;1286;545894;-74
2023/10/27 04:34:14;;;;;;;18.60;9.30;;;;;;;;;;103734;1293;545423;-75
2023/10/27 04:37:52;;;;;;;16.40;9.70;;;;;;;;;;104021;1289;544892;-74
2023/10/27 04:41:30;;;;;;;16.70;9.60;;;;;;;;;;103776;1291;545074;-75
2023/10/27 04:45:07;;;;;;;21.50;10.50;;;;;;;;;;103832;1292;544829;-75
2023/10/27 04:48:44;;;;;;;17.70;11.30;;;;;;;;;;103778;1292;545102;-74
2023/10/27 04:52:22;;;;;;;20.60;13.00;;;;;;;;;;103768;1292;546364;-74
2023/10/27 04:55:59;;;;;;;20.10;12.80;;;;;;;;;;104081;1289;545664;-74
2023/10/27 04:59:36;;;;;;;20.30;11.90;;;;;;;;;;103665;1292;544912;-74
2023/10/27 05:03:15;;;;;;;22.00;12.00;;;;;;;;;;103741;1289;545477;-74
2023/10/27 05:06:52;;;;;;;30.40;13.90;;;;;;;;;;104602;1293;544877;-74
2023/10/27 05:10:29;;;;;;;23.80;13.40;;;;;;;;;;104058;1289;545357;-74
2023/10/27 05:14:07;;;;;;;33.10;16.90;;;;;;;;;;103828;1291;545015;-76
2023/10/27 05:17:45;;;;;;;24.30;14.50;;;;;;;;;;104459;1283;544869;-74
2023/10/27 05:21:26;;;;;;;27.20;14.80;;;;;;;;;;103636;1291;544791;-74
2023/10/27 05:25:03;;;;;;;28.70;16.70;;;;;;;;;;103679;1291;545098;-74
2023/10/27 05:28:36;;;;;;;32.40;18.00;;;;;;;;;;103863;1290;545044;-74
2023/10/27 05:32:15;;;;;;;31.20;17.30;;;;;;;;;;103707;1292;546228;-74
2023/10/27 05:35:51;;;;;;;29.80;15.70;;;;;;;;;;103677;1290;544749;-74
2023/10/27 05:39:29;;;;;;;27.70;14.50;;;;;;;;;;103739;1292;545818;-74
2023/10/27 05:43:07;;;;;;;26.60;16.00;;;;;;;;;;103893;1288;546567;-74
2023/10/27 05:46:43;;;;;;;25.50;16.10;;;;;;;;;;104051;1289;544847;-74
2023/10/27 05:50:21;;;;;;;23.30;15.90;;;;;;;;;;103722;1292;545068;-74
2023/10/27 05:53:59;;;;;;;25.10;15.30;;;;;;;;;;104108;1285;545757;-74
2023/10/27 05:57:36;;;;;;;23.50;15.10;;;;;;;;;;104090;1292;546068;-74
2023/10/27 06:01:14;;;;;;;25.50;17.20;;;;;;;;;;103847;1292;545558;-74
2023/10/27 06:04:51;;;;;;;28.90;19.00;;;;;;;;;;103830;1290;544969;-74
2023/10/27 06:08:29;;;;;;;26.50;17.80;;;;;;;;;;103745;1290;545072;-74
2023/10/27 06:12:06;;;;;;;29.10;16.20;;;;;;;;;;103753;1291;545019;-74
2023/10/27 06:15:43;;;;;;;29.80;18.60;;;;;;;;;;103778;1290;544831;-75
2023/10/27 06:19:21;;;;;;;41.30;23.00;;;;;;;;;;103739;1291;544803;-74
2023/10/27 06:22:58;;;;;;;40.10;22.60;;;;;;;;;;103839;1288;545237;-74
2023/10/27 06:26:36;;;;;;;45.70;26.20;;;;;;;;;;103754;1293;545727;-74
2023/10/27 06:30:14;;;;;;;47.90;26.40;;;;;;;;;;104121;1286;546093;-74
2023/10/27 06:33:51;;;;;;;47.80;26.40;;;;;;;;;;104045;1289;545044;-74
2023/10/27 06:37:30;;;;;;;37.90;21.90;;;;;;;;;;103834;1292;545049;-74
2023/10/27 06:41:06;;;;;;;33.60;19.40;;;;;;;;;;104144;1286;545500;-74
2023/10/27 06:44:43;;;;;;;28.20;17.30;;;;;;;;;;104051;1288;545661;-77
2023/10/27 06:48:17;;;;;;;35.00;21.20;;;;;;;;;;104268;1288;544753;-74
2023/10/27 06:52:00;;;;;;;31.30;20.50;;;;;;;;;;103781;1292;544834;-75
2023/10/27 06:55:37;;;;;;;28.70;18.90;;;;;;;;;;103717;1289;544765;-75
2023/10/27 06:59:14;;;;;;;31.40;20.90;;;;;;;;;;103711;1291;545000;-77
2023/10/27 07:02:52;;;;;;;34.00;23.10;;;;;;;;;;103753;1292;546237;-75
2023/10/27 07:06:30;;;;;;;38.50;24.50;;;;;;;;;;103928;1292;544873;-77
2023/10/27 07:10:07;;;;;;;39.00;22.50;;;;;;;;;;103989;1289;545900;-77
2023/10/27 07:13:45;;;;;;;38.40;22.20;;;;;;;;;;103929;1288;545817;-76
2023/10/27 07:17:22;;;;;;;41.00;23.20;;;;;;;;;;103946;1292;544720;-77
2023/10/27 07:20:55;;;;;;;38.10;25.80;;;;;;;;;;103892;1289;544734;-78
2023/10/27 07:24:37;;;;;;;59.70;43.50;;;;;;;;;;103789;1289;544724;-74
2023/10/27 07:28:34;;;;;;;48.50;37.80;;;;;;;;;;103689;1289;548032;-74
2023/10/27 07:31:53;;;;;;;37.80;27.30;;;;;;;;;;103765;1292;544967;-74
2023/10/27 07:35:31;;;;;;;71.40;42.60;;;;;;;;;;103761;1289;545025;-74
2023/10/27 07:39:07;;;;;;;69.90;39.70;;;;;;;;;;103843;1291;545615;-74
2023/10/27 07:42:45;;;;;;;42.10;26.70;;;;;;;;;;103744;1289;545033;-74
2023/10/27 07:46:21;;;;;;;35.00;23.50;;;;;;;;;;103753;1293;544963;-74
2023/10/27 07:50:00;;;;;;;31.80;23.30;;;;;;;;;;103778;1292;545700;-74
2023/10/27 07:53:38;;;;;;;34.00;22.90;;;;;;;;;;103866;1295;545026;-74
2023/10/27 07:57:14;;;;;;;32.60;23.60;;;;;;;;;;103775;1292;545773;-75
2023/10/27 08:00:52;;;;;;;35.00;22.60;;;;;;;;;;103717;1289;545053;-75
2023/10/27 08:04:32;;;;;;;36.80;24.40;;;;;;;;;;103787;1289;544992;-74
2023/10/27 08:08:07;;;;;;;61.60;44.10;;;;;;;;;;104573;1284;544765;-75
2023/10/27 08:11:44;;;;;;;43.90;31.30;;;;;;;;;;103730;1290;544932;-74
2023/10/27 08:15:23;;;;;;;30.50;21.70;;;;;;;;;;103791;1290;545786;-74
2023/10/27 08:18:59;;;;;;;33.70;23.00;;;;;;;;;;103773;1292;545078;-75
2023/10/27 08:22:36;;;;;;;28.20;20.00;;;;;;;;;;103809;1291;545063;-74
2023/10/27 08:26:14;;;;;;;28.50;20.50;;;;;;;;;;103762;1288;545049;-74
2023/10/27 08:30:12;;;;;;;30.20;20.40;;;;;;;;;;103500;1292;545215;-74
2023/10/27 08:33:28;;;;;;;25.30;17.50;;;;;;;;;;103859;1290;545039;-75
2023/10/27 08:37:06;;;;;;;25.90;17.20;;;;;;;;;;103858;1302;545156;-75
2023/10/27 08:40:43;;;;;;;21.80;15.50;;;;;;;;;;103790;1292;544764;-75
2023/10/27 08:44:21;;;;;;;24.90;17.70;;;;;;;;;;103731;1295;545004;-75
2023/10/27 08:47:55;;;;;;;26.20;16.70;;;;;;;;;;103930;1289;544971;-75
2023/10/27 08:51:38;;;;;;;24.30;17.20;;;;;;;;;;103768;1291;545043;-74
2023/10/27 08:55:15;;;;;;;25.60;16.10;;;;;;;;;;103748;1294;544966;-74
2023/10/27 08:58:53;;;;;;;25.20;16.60;;;;;;;;;;103812;1292;545586;-76
2023/10/27 09:02:49;;;;;;;24.50;16.90;;;;;;;;;;103402;1297;548136;-79
2023/10/27 09:06:07;;;;;;;23.50;15.80;;;;;;;;;;103786;1292;544931;-74
2023/10/27 09:09:45;;;;;;;22.70;15.30;;;;;;;;;;103784;1291;545585;-74
2023/10/27 09:13:22;;;;;;;26.10;16.70;;;;;;;;;;104411;1283;545256;-75
2023/10/27 09:17:07;;;;;;;28.90;19.20;;;;;;;;;;103910;1292;544875;-75
2023/10/27 09:20:47;;;;;;;23.50;16.80;;;;;;;;;;103807;1289;544881;-76
2023/10/27 09:24:20;;;;;;;20.60;15.10;;;;;;;;;;104078;1289;544820;-76
2023/10/27 09:27:52;;;;;;;23.10;16.20;;;;;;;;;;103782;1292;545629;-74
2023/10/27 09:31:34;;;;;;;22.80;15.50;;;;;;;;;;103781;1290;544991;-75
2023/10/27 09:35:09;;;;;;;20.10;14.70;;;;;;;;;;103824;1289;545058;-75
2023/10/27 09:38:45;;;;;;;20.70;14.20;;;;;;;;;;103793;1289;544795;-75
2023/10/27 09:42:22;;;;;;;19.80;13.40;;;;;;;;;;103771;1292;544814;-75
2023/10/27 09:46:01;;;;;;;19.00;12.70;;;;;;;;;;104394;1286;544914;-75
2023/10/27 09:49:38;;;;;;;17.60;12.50;;;;;;;;;;103788;1289;545327;-75
2023/10/27 09:53:15;;;;;;;18.50;13.60;;;;;;;;;;103775;1289;546409;-75
2023/10/27 09:56:53;;;;;;;20.40;15.30;;;;;;;;;;103758;1292;545219;-75
2023/10/27 10:00:30;;;;;;;21.70;15.30;;;;;;;;;;103799;1289;545621;-76
2023/10/27 10:04:03;;;;;;;17.90;15.20;;;;;;;;;;104013;1286;544961;-75
2023/10/27 10:07:52;;;;;;;20.20;14.60;;;;;;;;;;103875;1291;545422;-75
2023/10/27 10:11:23;;;;;;;19.40;13.60;;;;;;;;;;103779;1290;545303;-76
2023/10/27 10:15:05;;;;;;;21.70;13.50;;;;;;;;;;103816;1292;545215;-75
2023/10/27 10:18:48;;;;;;;19.90;13.30;;;;;;;;;;103845;1289;545382;-75
2023/10/27 10:22:34;;;;;;;19.10;13.30;;;;;;;;;;103806;1290;545025;-75
2023/10/27 10:25:57;;;;;;;19.80;13.40;;;;;;;;;;104008;1288;545061;-75
2023/10/27 10:29:32;;;;;;;18.80;13.70;;;;;;;;;;103801;1292;544873;-75
2023/10/27 10:33:14;;;;;;;17.50;13.10;;;;;;;;;;103832;1289;545882;-76
2023/10/27 10:36:46;;;;;;;21.20;15.20;;;;;;;;;;103842;1290;545147;-79
2023/10/27 10:40:24;;;;;;;18.00;13.90;;;;;;;;;;103780;1292;544871;-76
2023/10/27 10:44:11;;;;;;;18.50;13.90;;;;;;;;;;103861;1292;544751;-75
2023/10/27 10:47:39;;;;;;;19.90;14.50;;;;;;;;;;103760;1291;544925;-75
2023/10/27 10:51:25;;;;;;;19.10;13.00;;;;;;;;;;103747;1292;544890;-75
2023/10/27 10:54:59;;;;;;;17.00;13.20;;;;;;;;;;103412;1298;548094;-75
2023/10/27 10:58:35;;;;;;;16.40;13.00;;;;;;;;;;103825;1290;545188;-76
2023/10/27 11:02:04;;;;;;;19.70;13.10;;;;;;;;;;103979;1289;544754;-75
2023/10/27 11:05:47;;;;;;;17.90;13.30;;;;;;;;;;103801;1292;546005;-75
2023/10/27 11:09:25;;;;;;;18.70;13.70;;;;;;;;;;103796;1292;544765;-76
2023/10/27 11:13:03;;;;;;;19.10;13.80;;;;;;;;;;103730;1289;545838;-75
2023/10/27 11:16:40;;;;;;;19.60;14.70;;;;;;;;;;103950;1289;545694;-75
2023/10/27 11:20:33;;;;;;;23.00;15.30;;;;;;;;;;103768;1289;545000;-75
2023/10/27 11:23:55;;;;;;;21.00;15.50;;;;;;;;;;103781;1289;545401;-75
2023/10/27 11:27:32;;;;;;;20.20;15.10;;;;;;;;;;103819;1289;545043;-75
2023/10/27 11:31:12;;;;;;;19.70;15.50;;;;;;;;;;104051;1289;545687;-75
2023/10/27 11:34:54;;;;;;;19.70;14.20;;;;;;;;;;104084;1289;544822;-75
2023/10/27 11:38:31;;;;;;;17.00;13.40;;;;;;;;;;103756;1289;544753;-76
2023/10/27 11:42:02;;;;;;;18.70;13.70;;;;;;;;;;103959;1293;545456;-75
2023/10/27 11:45:39;;;;;;;17.80;14.40;;;;;;;;;;103763;1289;545914;-75
2023/10/27 11:49:17;;;;;;;20.30;14.20;;;;;;;;;;103537;1298;545443;-75
2023/10/27 11:52:54;;;;;;;16.80;12.60;;;;;;;;;;103824;1288;544912;-75
2023/10/27 11:56:32;;;;;;;17.40;13.00;;;;;;;;;;104120;1286;544735;-75
2023/10/27 12:00:09;;;;;;;15.60;11.10;;;;;;;;;;103810;1292;544861;-75
2023/10/27 12:03:46;;;;;;;16.70;11.50;;;;;;;;;;103851;1302;544968;-74
2023/10/27 12:07:20;;;;;;;19.30;10.80;;;;;;;;;;103919;1288;544801;-75
2023/10/27 12:11:03;;;;;;;15.90;10.20;;;;;;;;;;103761;1292;545516;-75
2023/10/27 12:15:01;;;;;;;15.80;10.90;;;;;;;;;;103669;1295;547775;-74
2023/10/27 12:18:24;;;;;;;16.30;10.80;;;;;;;;;;103666;1292;548109;-75
2023/10/27 12:21:55;;;;;;;14.00;10.00;;;;;;;;;;103852;1292;545035;-76
2023/10/27 12:25:33;;;;;;;15.40;10.20;;;;;;;;;;104567;1282;546132;-76
2023/10/27 12:29:11;;;;;;;15.50;10.20;;;;;;;;;;103745;1289;545242;-75
2023/10/27 12:32:48;;;;;;;17.20;10.90;;;;;;;;;;103800;1296;544600;-76
2023/10/27 12:36:25;;;;;;;14.60;10.50;;;;;;;;;;103790;1291;545932;-76
2023/10/27 12:40:06;;;;;;;15.00;10.30;;;;;;;;;;103793;1290;545005;-75
2023/10/27 12:43:36;;;;;;;14.70;9.80;;;;;;;;;;103963;1289;545026;-76
2023/10/27 12:47:20;;;;;;;14.70;10.40;;;;;;;;;;103803;1292;544980;-77
2023/10/27 12:50:58;;;;;;;15.00;11.40;;;;;;;;;;103847;1291;545500;-77
2023/10/27 12:54:35;;;;;;;14.50;11.10;;;;;;;;;;103747;1292;545491;-76
2023/10/27 12:58:12;;;;;;;13.90;10.40;;;;;;;;;;103753;1290;545722;-75
2023/10/27 13:01:49;;;;;;;13.90;9.70;;;;;;;;;;103946;1289;545464;-76
2023/10/27 13:05:34;;;;;;;13.80;10.00;;;;;;;;;;104171;1289;547961;-76
2023/10/27 13:09:04;;;;;;;13.70;10.10;;;;;;;;;;104232;1285;544864;-75
2023/10/27 13:12:48;;;;;;;12.40;9.50;;;;;;;;;;103874;1294;547990;-77
2023/10/27 13:16:19;;;;;;;12.40;8.50;;;;;;;;;;103718;1291;545175;-79
2023/10/27 13:20:03;;;;;;;11.90;7.50;;;;;;;;;;104064;1288;549145;-76
2023/10/27 13:23:34;;;;;;;13.10;8.50;;;;;;;;;;103895;1289;544815;-77
2023/10/27 13:27:11;;;;;;;11.80;8.90;;;;;;;;;;103825;1300;545600;-76
2023/10/27 13:30:49;;;;;;;14.50;9.90;;;;;;;;;;103856;1292;544971;-77
2023/10/27 13:34:29;;;;;;;12.40;9.10;;;;;;;;;;103748;1289;545446;-76
2023/10/27 13:38:06;;;;;;;13.70;10.00;;;;;;;;;;103629;1292;545400;-77
2023/10/27 13:41:41;;;;;;;15.50;11.90;;;;;;;;;;103850;1292;546066;-76
2023/10/27 13:45:18;;;;;;;13.70;9.70;;;;;;;;;;103799;1292;545524;-79
2023/10/27 13:48:56;;;;;;;11.80;8.10;;;;;;;;;;103741;1290;544814;-76
2023/10/27 13:52:34;;;;;;;11.60;7.00;;;;;;;;;;103722;1292;544717;-76
2023/10/27 13:56:12;;;;;;;13.20;8.30;;;;;;;;;;103714;1302;544968;-76
2023/10/27 13:59:48;;;;;;;12.20;7.30;;;;;;;;;;103764;1292;545324;-77
2023/10/27 14:03:26;;;;;;;13.20;8.20;;;;;;;;;;103799;1290;544712;-76
2023/10/27 14:07:04;;;;;;;10.40;6.80;;;;;;;;;;103726;1292;544794;-76
2023/10/27 14:10:41;;;;;;;11.80;7.40;;;;;;;;;;103806;1295;544738;-76
2023/10/27 14:14:20;;;;;;;11.40;7.50;;;;;;;;;;103742;1292;544785;-76
2023/10/27 14:17:56;;;;;;;13.50;9.00;;;;;;;;;;103958;1301;544952;-76
2023/10/27 14:21:38;;;;;;;14.70;8.50;;;;;;;;;;103716;1289;545670;-76
2023/10/27 14:25:12;;;;;;;13.10;8.90;;;;;;;;;;103728;1290;544769;-75
2023/10/27 14:28:48;;;;;;;14.70;9.20;;;;;;;;;;103746;1289;545173;-76
2023/10/27 14:32:26;;;;;;;30.00;15.10;;;;;;;;;;104068;1289;545332;-76
2023/10/27 14:36:06;;;;;;;35.70;21.50;;;;;;;;;;103788;1293;544966;-76
2023/10/27 14:39:48;;;;;;;24.10;14.90;;;;;;;;;;103596;1292;547782;-77
2023/10/27 14:43:18;;;;;;;16.30;11.20;;;;;;;;;;103799;1288;545052;-76
2023/10/27 14:46:55;;;;;;;15.60;11.40;;;;;;;;;;103734;1291;544858;-76
2023/10/27 14:50:29;;;;;;;17.00;12.70;;;;;;;;;;104044;1288;545355;-76
2023/10/27 14:54:11;;;;;;;19.40;14.30;;;;;;;;;;103825;1291;545517;-76
2023/10/27 14:57:49;;;;;;;18.50;13.80;;;;;;;;;;103735;1302;545593;-76
2023/10/27 15:01:26;;;;;;;17.90;13.20;;;;;;;;;;103735;1292;544934;-76
2023/10/27 15:05:03;;;;;;;16.30;12.20;;;;;;;;;;103766;1291;544928;-76
2023/10/27 15:08:40;;;;;;;17.30;12.80;;;;;;;;;;103779;1292;545470;-76
2023/10/27 15:12:24;;;;;;;16.90;13.80;;;;;;;;;;103503;1292;547829;-76
2023/10/27 15:16:25;;;;;;;16.30;13.40;;;;;;;;;;103737;1289;544975;-76
2023/10/27 15:19:37;;;;;;;17.60;14.30;;;;;;;;;;103725;1292;545322;-75
2023/10/27 15:23:10;;;;;;;16.20;13.20;;;;;;;;;;103830;1292;544913;-76
2023/10/27 15:26:48;;;;;;;17.90;13.00;;;;;;;;;;103741;1290;546096;-76
2023/10/27 15:30:25;;;;;;;18.40;13.00;;;;;;;;;;104109;1289;544855;-76
2023/10/27 15:34:03;;;;;;;15.20;11.20;;;;;;;;;;103743;1292;544837;-76
2023/10/27 15:37:40;;;;;;;14.10;11.30;;;;;;;;;;103762;1291;544900;-76
2023/10/27 15:41:28;;;;;;;15.60;12.80;;;;;;;;;;103687;1291;545855;-75
2023/10/27 15:44:59;;;;;;;15.60;12.70;;;;;;;;;;103508;1295;545074;-76
2023/10/27 15:48:33;;;;;;;18.30;13.00;;;;;;;;;;103762;1289;544984;-77
2023/10/27 15:52:06;;;;;;;17.70;13.30;;;;;;;;;;103837;1289;546400;-76
2023/10/27 15:55:44;;;;;;;18.00;13.50;;;;;;;;;;103797;1295;545097;-76
2023/10/27 15:59:25;;;;;;;17.60;13.80;;;;;;;;;;103481;1295;544934;-76
2023/10/27 16:03:03;;;;;;;19.70;16.40;;;;;;;;;;103741;1292;546081;-77
2023/10/27 16:06:40;;;;;;;24.20;19.20;;;;;;;;;;103968;1294;546665;-76
2023/10/27 16:10:18;;;;;;;26.30;19.20;;;;;;;;;;103994;1301;546037;-76
2023/10/27 16:13:55;;;;;;;26.70;19.70;;;;;;;;;;103922;1288;544991;-77
2023/10/27 16:17:33;;;;;;;25.40;20.60;;;;;;;;;;104133;1288;545454;-76
2023/10/27 16:21:11;;;;;;;25.90;21.50;;;;;;;;;;103749;1296;544726;-76
2023/10/27 16:24:48;;;;;;;26.70;20.60;;;;;;;;;;103666;1291;545624;-76
2023/10/27 16:28:25;;;;;;;24.10;19.00;;;;;;;;;;103749;1295;544961;-78
2023/10/27 16:32:04;;;;;;;29.90;24.00;;;;;;;;;;104917;1279;544710;-76
2023/10/27 16:35:40;;;;;;;30.40;23.40;;;;;;;;;;103731;1290;544797;-77
2023/10/27 16:39:17;;;;;;;27.40;21.20;;;;;;;;;;103755;1288;544904;-77
2023/10/27 16:42:55;;;;;;;26.20;21.60;;;;;;;;;;103795;1289;544949;-76
2023/10/27 16:46:32;;;;;;;26.80;21.30;;;;;;;;;;104125;1288;545451;-77
2023/10/27 16:50:12;;;;;;;27.90;22.70;;;;;;;;;;103935;1290;544953;-76
2023/10/27 16:53:47;;;;;;;29.20;23.90;;;;;;;;;;104166;1296;544864;-76
2023/10/27 16:57:26;;;;;;;29.60;22.60;;;;;;;;;;103805;1292;545406;-76
2023/10/27 17:01:08;;;;;;;23.80;19.70;;;;;;;;;;103712;1301;548114;-77
2023/10/27 17:04:39;;;;;;;22.70;16.80;;;;;;;;;;103864;1293;546614;-76
2023/10/27 17:08:17;;;;;;;33.70;24.30;;;;;;;;;;103941;1289;545096;-77
2023/10/27 17:11:55;;;;;;;25.50;19.90;;;;;;;;;;104202;1284;544763;-76
2023/10/27 17:15:48;;;;;;;21.50;16.80;;;;;;;;;;103845;1292;548194;-76
2023/10/27 17:19:09;;;;;;;22.80;17.40;;;;;;;;;;104026;1288;544946;-76
2023/10/27 17:22:52;;;;;;;28.00;22.20;;;;;;;;;;103715;1289;547966;-76
2023/10/27 17:26:24;;;;;;;21.90;17.90;;;;;;;;;;103827;1291;545189;-76
2023/10/27 17:30:05;;;;;;;27.90;20.10;;;;;;;;;;103741;1289;544849;-76
2023/10/27 17:33:39;;;;;;;27.90;21.90;;;;;;;;;;103772;1292;544992;-76
2023/10/27 17:37:18;;;;;;;26.70;21.80;;;;;;;;;;104322;1291;545041;-76
2023/10/27 17:41:00;;;;;;;20.10;15.60;;;;;;;;;;103812;1291;545879;-76
2023/10/27 17:44:34;;;;;;;20.20;14.60;;;;;;;;;;103810;1292;544904;-76
2023/10/27 17:48:10;;;;;;;18.00;13.00;;;;;;;;;;103732;1292;546507;-76
2023/10/27 17:51:54;;;;;;;17.70;12.60;;;;;;;;;;103279;1297;547804;-76
2023/10/27 17:55:24;;;;;;;18.40;13.10;;;;;;;;;;103917;1289;544729;-77
2023/10/27 17:58:59;;;;;;;16.40;12.80;;;;;;;;;;103910;1288;544898;-75
2023/10/27 18:02:35;;;;;;;17.30;11.70;;;;;;;;;;103914;1292;544795;-76
2023/10/27 18:06:17;;;;;;;23.00;17.00;;;;;;;;;;103788;1292;544896;-78
2023/10/27 18:09:54;;;;;;;19.80;13.90;;;;;;;;;;103769;1291;544731;-76
2023/10/27 18:13:31;;;;;;;14.70;10.60;;;;;;;;;;103705;1293;546058;-76
2023/10/27 18:17:09;;;;;;;16.80;12.80;;;;;;;;;;103936;1289;545754;-75
2023/10/27 18:20:46;;;;;;;15.20;10.40;;;;;;;;;;103758;1295;544809;-77
2023/10/27 18:24:24;;;;;;;11.20;7.30;;;;;;;;;;103816;1292;545224;-76
2023/10/27 18:28:02;;;;;;;11.80;8.10;;;;;;;;;;103886;1289;545201;-75
2023/10/27 18:31:38;;;;;;;20.00;14.20;;;;;;;;;;103907;1288;544861;-76
2023/10/27 18:35:18;;;;;;;21.30;13.60;;;;;;;;;;104030;1288;545517;-76
2023/10/27 18:38:53;;;;;;;26.00;15.00;;;;;;;;;;103782;1289;545038;-76
2023/10/27 18:42:37;;;;;;;34.80;24.90;;;;;;;;;;103506;1291;548073;-76
2023/10/27 18:46:09;;;;;;;30.70;20.50;;;;;;;;;;103787;1292;545309;-76
2023/10/27 18:49:46;;;;;;;14.50;9.60;;;;;;;;;;103905;1288;544724;-76
2023/10/27 18:53:23;;;;;;;11.40;7.70;;;;;;;;;;104206;1285;545246;-76
2023/10/27 18:57:04;;;;;;;12.30;7.50;;;;;;;;;;103710;1291;544860;-76
2023/10/27 19:00:41;;;;;;;9.50;6.30;;;;;;;;;;103754;1292;544762;-76
2023/10/27 19:04:16;;;;;;;9.70;6.20;;;;;;;;;;103739;1289;545419;-76
2023/10/27 19:07:57;;;;;;;10.90;6.10;;;;;;;;;;103695;1292;546063;-77
2023/10/27 19:11:32;;;;;;;11.90;6.70;;;;;;;;;;103724;1292;545507;-76
2023/10/27 19:15:07;;;;;;;11.10;6.20;;;;;;;;;;103831;1292;545393;-76
2023/10/27 19:18:51;;;;;;;11.40;5.80;;;;;;;;;;103724;1296;544989;-76
2023/10/27 19:22:28;;;;;;;8.80;5.10;;;;;;;;;;103863;1289;545249;-76
2023/10/27 19:26:08;;;;;;;8.60;4.40;;;;;;;;;;103768;1290;544999;-75
2023/10/27 19:29:43;;;;;;;10.10;4.50;;;;;;;;;;103728;1292;544947;-76
2023/10/27 19:33:17;;;;;;;8.20;4.80;;;;;;;;;;104313;1283;544852;-76
2023/10/27 19:36:59;;;;;;;7.20;4.40;;;;;;;;;;103884;1288;545603;-75
2023/10/27 19:40:36;;;;;;;7.20;4.00;;;;;;;;;;103773;1289;544966;-77
2023/10/27 19:44:12;;;;;;;6.40;3.30;;;;;;;;;;103698;1291;545046;-78
2023/10/27 19:47:50;;;;;;;6.90;3.40;;;;;;;;;;103717;1301;545552;-79
2023/10/27 19:51:24;;;;;;;7.30;3.80;;;;;;;;;;103821;1289;544968;-78
2023/10/27 19:55:14;;;;;;;6.40;2.60;;;;;;;;;;103792;1291;544970;-78
2023/10/27 19:58:45;;;;;;;6.00;3.00;;;;;;;;;;103760;1289;545967;-77
2023/10/27 20:02:22;;;;;;;7.70;3.20;;;;;;;;;;104228;1285;544829;-77
2023/10/27 20:06:00;;;;;;;6.80;3.20;;;;;;;;;;103836;1289;544958;-77
2023/10/27 20:09:38;;;;;;;5.30;2.40;;;;;;;;;;103703;1292;544921;-76
2023/10/27 20:13:15;;;;;;;5.60;2.40;;;;;;;;;;103754;1291;545163;-76
2023/10/27 20:16:56;;;;;;;6.70;2.50;;;;;;;;;;103746;1301;544830;-77
2023/10/27 20:20:28;;;;;;;5.60;2.60;;;;;;;;;;103559;1295;545316;-77
2023/10/27 20:24:08;;;;;;;6.20;2.40;;;;;;;;;;103710;1292;544871;-77
2023/10/27 20:27:45;;;;;;;7.90;2.70;;;;;;;;;;103882;1302;544725;-78
2023/10/27 20:31:18;;;;;;;6.00;2.60;;;;;;;;;;103818;1289;544991;-77
2023/10/27 20:35:01;;;;;;;6.90;2.50;;;;;;;;;;103775;1288;545981;-77
2023/10/27 20:38:33;;;;;;;5.10;2.50;;;;;;;;;;103859;1289;545532;-77